createdAt,value
2022-11-29T00:00:58.539Z,12.32
2022-11-29T00:04:01.527Z,12.57
2022-11-29T00:07:03.646Z,11.02
2022-11-29T00:10:06.357Z,12.27
2022-11-29T00:13:08.398Z,12.27
2022-11-29T00:16:12.419Z,12.55
2022-11-29T00:19:14.475Z,13.02
2022-11-29T00:22:16.541Z,12.38
2022-11-29T00:25:18.705Z,12.05
2022-11-29T00:28:20.841Z,12.82
2022-11-29T00:31:26.509Z,12.23
2022-11-29T00:34:29.031Z,12.82
2022-11-29T00:37:31.189Z,13.68
2022-11-29T00:40:33.184Z,13.65
2022-11-29T00:43:35.793Z,14.00
2022-11-29T00:46:38.286Z,14.40
2022-11-29T00:49:40.442Z,12.68
2022-11-29T00:52:42.419Z,14.38
2022-11-29T00:55:50.505Z,13.75
2022-11-29T00:58:52.603Z,13.07
2022-11-29T01:01:54.682Z,12.95
2022-11-29T01:04:56.682Z,13.57
2022-11-29T01:07:58.947Z,14.00
2022-11-29T01:11:25.582Z,13.35
2022-11-29T01:14:27.655Z,12.70
2022-11-29T01:17:34.748Z,15.30
2022-11-29T01:20:36.809Z,13.65
2022-11-29T01:23:39.455Z,12.60
2022-11-29T01:26:42.135Z,13.70
2022-11-29T01:29:45.147Z,13.43
2022-11-29T01:32:47.203Z,13.63
2022-11-29T01:35:54.451Z,12.75
2022-11-29T01:38:56.588Z,13.07
2022-11-29T01:42:00.201Z,12.30
2022-11-29T01:45:04.615Z,12.32
2022-11-29T01:48:06.754Z,12.15
2022-11-29T01:51:08.808Z,13.45
2022-11-29T01:54:12.490Z,13.38
2022-11-29T01:57:14.745Z,12.52
2022-11-29T02:00:18.734Z,13.73
2022-11-29T02:03:21.893Z,17.17
2022-11-29T02:06:24.389Z,14.10
2022-11-29T02:09:26.710Z,12.80
2022-11-29T02:12:52.889Z,13.45
2022-11-29T02:16:09.317Z,13.73
2022-11-29T02:19:43.959Z,12.63
2022-11-29T02:23:07.350Z,13.68
2022-11-29T02:26:12.288Z,13.52
2022-11-29T02:29:33.817Z,13.50
2022-11-29T02:32:44.785Z,13.15
2022-11-29T02:35:57.224Z,13.07
2022-11-29T02:39:24.503Z,13.02
2022-11-29T02:43:02.669Z,13.52
2022-11-29T02:46:49.845Z,13.43
2022-11-29T02:50:16.286Z,12.63
2022-11-29T02:53:35.590Z,13.48
2022-11-29T02:56:46.554Z,12.90
2022-11-29T03:00:05.239Z,11.52
2022-11-29T03:03:14.800Z,11.32
2022-11-29T03:06:26.164Z,11.80
2022-11-29T03:09:46.630Z,11.15
2022-11-29T03:12:53.129Z,12.88
2022-11-29T03:16:18.049Z,10.88
2022-11-29T03:19:57.200Z,11.07
2022-11-29T03:23:14.322Z,11.07
2022-11-29T03:26:24.930Z,10.30
2022-11-29T03:29:35.777Z,11.20
2022-11-29T03:32:55.858Z,11.40
2022-11-29T03:36:14.535Z,10.82
2022-11-29T03:39:30.345Z,10.35
2022-11-29T03:42:40.060Z,11.20
2022-11-29T03:45:49.475Z,10.43
2022-11-29T03:49:00.686Z,12.90
2022-11-29T03:52:21.589Z,11.18
2022-11-29T03:55:57.189Z,12.52
2022-11-29T03:59:24.761Z,12.07
2022-11-29T04:02:48.656Z,11.80
2022-11-29T04:05:50.632Z,10.45
2022-11-29T04:09:21.487Z,11.43
2022-11-29T04:12:49.148Z,11.55
2022-11-29T04:16:44.551Z,9.95
2022-11-29T04:20:10.732Z,11.15
2022-11-29T04:23:51.140Z,10.60
2022-11-29T04:27:23.977Z,10.43
2022-11-29T04:30:28.406Z,11.77
2022-11-29T04:34:04.169Z,11.95
2022-11-29T04:37:15.033Z,11.77
2022-11-29T04:40:44.557Z,10.95
2022-11-29T04:44:07.716Z,11.68
2022-11-29T04:47:52.668Z,10.75
2022-11-29T04:50:58.760Z,12.40
2022-11-29T04:54:35.705Z,12.23
2022-11-29T04:57:47.516Z,11.45
2022-11-29T05:01:19.225Z,11.65
2022-11-29T05:04:36.674Z,11.55
2022-11-29T05:08:07.624Z,11.00
2022-11-29T05:11:09.888Z,11.10
2022-11-29T05:14:56.592Z,10.85
2022-11-29T05:18:43.324Z,11.70
2022-11-29T05:22:11.843Z,10.93
2022-11-29T05:25:31.703Z,11.63
2022-11-29T05:28:54.221Z,11.00
2022-11-29T05:32:21.804Z,12.20
2022-11-29T05:35:40.582Z,12.15
2022-11-29T05:39:01.947Z,11.40
2022-11-29T05:42:21.967Z,11.23
2022-11-29T05:45:31.094Z,11.05
2022-11-29T05:49:01.246Z,11.63
2022-11-29T05:52:25.199Z,10.93
2022-11-29T05:55:30.051Z,10.65
2022-11-29T05:58:58.639Z,11.27
2022-11-29T06:02:09.982Z,10.93
2022-11-29T06:05:33.911Z,11.88
2022-11-29T06:08:58.698Z,11.73
2022-11-29T06:12:06.956Z,11.43
2022-11-29T06:15:19.690Z,10.82
2022-11-29T06:18:46.354Z,6.53
2022-11-29T06:22:07.272Z,8.55
2022-11-29T06:25:39.498Z,7.93
2022-11-29T06:29:18.638Z,9.35
2022-11-29T06:32:45.407Z,7.30
2022-11-29T06:36:07.961Z,10.23
2022-11-29T06:39:11.094Z,10.55
2022-11-29T06:42:13.366Z,12.95
2022-11-29T06:45:17.248Z,12.32
2022-11-29T06:48:26.336Z,11.20
2022-11-29T06:52:02.366Z,12.00
2022-11-29T06:55:22.979Z,12.82
2022-11-29T06:58:52.273Z,12.23
2022-11-29T07:02:20.505Z,12.70
2022-11-29T07:05:33.690Z,12.18
2022-11-29T07:08:35.924Z,11.93
2022-11-29T07:11:38.453Z,10.82
2022-11-29T07:14:40.899Z,12.60
2022-11-29T07:18:30.316Z,11.80
2022-11-29T07:21:44.244Z,12.45
2022-11-29T07:25:02.164Z,12.38
2022-11-29T07:28:27.361Z,12.93
2022-11-29T07:31:51.262Z,12.27
2022-11-29T07:35:35.288Z,11.63
2022-11-29T07:39:05.509Z,12.93
2022-11-29T07:42:10.522Z,12.65
2022-11-29T07:45:23.896Z,12.23
2022-11-29T07:48:27.086Z,12.30
2022-11-29T07:51:29.459Z,13.40
2022-11-29T07:54:31.689Z,14.23
2022-11-29T07:57:36.755Z,13.15
2022-11-29T08:00:39.875Z,12.75
2022-11-29T08:03:43.331Z,13.27
2022-11-29T08:06:45.391Z,12.70
2022-11-29T08:09:47.600Z,10.50
2022-11-29T08:12:51.158Z,12.30
2022-11-29T08:15:53.294Z,12.45
2022-11-29T08:18:55.544Z,11.35
2022-11-29T08:21:57.760Z,10.82
2022-11-29T08:25:00.287Z,10.25
2022-11-29T08:28:03.991Z,10.25
2022-11-29T08:31:08.268Z,10.02
2022-11-29T08:34:10.951Z,10.30
2022-11-29T08:37:12.991Z,9.95
2022-11-29T08:40:16.073Z,9.73
2022-11-29T08:43:18.056Z,8.77
2022-11-29T08:46:20.801Z,9.65
2022-11-29T08:49:23.245Z,8.57
2022-11-29T08:52:46.950Z,7.57
2022-11-29T08:55:50.717Z,7.57
2022-11-29T08:58:54.193Z,9.32
2022-11-29T09:01:56.350Z,8.25
2022-11-29T09:04:58.369Z,8.13
2022-11-29T09:08:00.626Z,7.97
2022-11-29T09:11:15.614Z,8.55
2022-11-29T09:14:18.344Z,8.60
2022-11-29T09:17:20.617Z,7.57
2022-11-29T09:20:22.731Z,7.05
2022-11-29T09:23:25.467Z,7.78
2022-11-29T09:26:32.231Z,9.23
2022-11-29T09:29:34.273Z,7.90
2022-11-29T09:32:36.420Z,9.00
2022-11-29T09:35:38.511Z,10.15
2022-11-29T09:38:40.900Z,10.23
2022-11-29T09:41:57.312Z,8.55
2022-11-29T09:45:07.733Z,10.38
2022-11-29T09:48:15.911Z,10.70
2022-11-29T09:51:28.150Z,9.35
2022-11-29T09:54:41.784Z,9.25
2022-11-29T09:57:45.004Z,9.45
2022-11-29T10:01:03.776Z,8.88
2022-11-29T10:04:12.582Z,7.25
2022-11-29T10:07:22.650Z,7.85
2022-11-29T10:10:40.980Z,8.85
2022-11-29T10:13:49.085Z,8.80
2022-11-29T10:17:06.396Z,10.10
2022-11-29T10:20:19.074Z,9.98
2022-11-29T10:23:44.457Z,10.35
2022-11-29T10:26:46.912Z,9.55
2022-11-29T10:29:51.290Z,8.70
2022-11-29T10:33:02.811Z,8.90
2022-11-29T10:36:29.134Z,9.70
2022-11-29T10:39:46.228Z,9.70
2022-11-29T10:42:55.408Z,10.32
2022-11-29T10:45:58.937Z,10.43
2022-11-29T10:49:13.461Z,8.98
2022-11-29T10:52:22.227Z,7.72
2022-11-29T10:55:26.405Z,9.77
2022-11-29T10:58:31.263Z,8.18
2022-11-29T11:01:38.696Z,9.38
2022-11-29T11:04:47.061Z,7.55
2022-11-29T11:07:57.869Z,8.27
2022-11-29T11:11:02.185Z,9.05
2022-11-29T11:14:18.393Z,7.88
2022-11-29T11:17:33.105Z,8.05
2022-11-29T11:20:38.277Z,9.23
2022-11-29T11:23:58.188Z,8.15
2022-11-29T11:27:01.250Z,7.78
2022-11-29T11:30:07.203Z,8.13
2022-11-29T11:33:22.185Z,8.43
2022-11-29T11:36:28.033Z,8.93
2022-11-29T11:39:30.236Z,7.25
2022-11-29T11:42:38.555Z,7.85
2022-11-29T11:45:40.570Z,8.77
2022-11-29T11:48:42.692Z,8.75
2022-11-29T11:51:44.748Z,7.85
2022-11-29T11:55:00.559Z,7.50
2022-11-29T11:58:12.454Z,6.95
2022-11-29T12:01:24.754Z,7.43
2022-11-29T12:04:38.140Z,8.18
2022-11-29T12:08:11.065Z,10.27
2022-11-29T12:11:17.733Z,6.78
2022-11-29T12:14:48.591Z,8.32
2022-11-29T12:18:00.539Z,7.70
2022-11-29T12:21:18.103Z,13.00
2022-11-29T12:24:29.482Z,8.48
2022-11-29T12:27:32.140Z,7.82
2022-11-29T12:30:34.698Z,6.70
2022-11-29T12:34:10.206Z,6.05
2022-11-29T12:37:38.219Z,6.47
2022-11-29T12:41:17.737Z,8.25
2022-11-29T12:44:53.908Z,8.88
2022-11-29T12:48:18.901Z,5.43
2022-11-29T12:51:21.003Z,6.38
2022-11-29T12:54:46.377Z,6.38
2022-11-29T12:57:52.931Z,6.05
2022-11-29T13:01:21.959Z,6.25
2022-11-29T13:04:59.751Z,6.18
2022-11-29T13:08:37.579Z,5.75
2022-11-29T13:12:02.123Z,6.13
2022-11-29T13:15:17.806Z,5.93
2022-11-29T13:18:35.695Z,4.32
2022-11-29T13:21:44.055Z,4.95
2022-11-29T13:28:03.327Z,5.95
2022-11-29T13:31:09.758Z,5.13
2022-11-29T13:34:26.886Z,4.25
2022-11-29T13:37:47.456Z,4.78
2022-11-29T13:41:28.101Z,6.00
2022-11-29T13:44:37.201Z,5.38
2022-11-29T13:47:49.686Z,5.53
2022-11-29T13:50:51.826Z,5.50
2022-11-29T13:53:58.053Z,5.57
2022-11-29T13:57:08.765Z,5.88
2022-11-29T14:00:33.869Z,5.72
2022-11-29T14:03:39.720Z,5.75
2022-11-29T14:06:41.789Z,6.35
2022-11-29T14:09:49.698Z,5.25
2022-11-29T14:12:56.977Z,5.45
2022-11-29T14:16:03.550Z,5.50
2022-11-29T14:19:08.449Z,5.22
2022-11-29T14:22:13.339Z,5.05
2022-11-29T14:28:48.408Z,4.68
2022-11-29T14:31:52.148Z,5.55
2022-11-29T14:35:12.443Z,4.75
2022-11-29T14:38:38.368Z,4.88
2022-11-29T14:42:01.345Z,5.32
2022-11-29T14:45:06.498Z,5.25
2022-11-29T14:48:32.136Z,4.97
2022-11-29T14:51:35.313Z,5.70
2022-11-29T14:54:54.386Z,4.50
2022-11-29T14:58:19.156Z,5.28
2022-11-29T15:01:21.341Z,4.85
2022-11-29T15:04:29.024Z,5.03
2022-11-29T15:07:32.946Z,5.13
2022-11-29T15:10:41.017Z,5.35
2022-11-29T15:13:56.017Z,6.03
2022-11-29T15:21:03.662Z,5.10
2022-11-29T15:24:51.307Z,6.43
2022-11-29T15:27:55.721Z,5.53
2022-11-29T15:31:23.153Z,6.65
2022-11-29T15:34:41.905Z,6.28
2022-11-29T15:41:47.985Z,5.70
2022-11-29T15:44:53.537Z,6.63
2022-11-29T15:48:26.072Z,7.60
2022-11-29T15:51:36.422Z,7.03
2022-11-29T15:54:48.113Z,7.50
2022-11-29T15:57:56.091Z,6.25
2022-11-29T16:01:02.063Z,6.97
2022-11-29T16:04:04.941Z,7.43
2022-11-29T16:07:11.219Z,7.55
2022-11-29T16:10:21.618Z,7.03
2022-11-29T16:13:34.927Z,7.10
2022-11-29T16:16:38.966Z,8.35
2022-11-29T16:19:43.608Z,8.82
2022-11-29T16:22:47.578Z,9.02
2022-11-29T16:26:07.258Z,8.80
2022-11-29T16:29:41.753Z,8.30
2022-11-29T16:32:53.230Z,6.57
2022-11-29T16:36:28.067Z,5.38
2022-11-29T16:39:35.396Z,5.22
2022-11-29T16:42:38.990Z,6.20
2022-11-29T16:45:43.040Z,5.50
2022-11-29T16:48:45.124Z,5.38
2022-11-29T16:51:48.810Z,6.50
2022-11-29T16:54:52.407Z,4.85
2022-11-29T16:57:56.114Z,3.92
2022-11-29T17:00:59.227Z,4.30
2022-11-29T17:04:02.248Z,4.18
2022-11-29T17:07:11.077Z,3.30
2022-11-29T17:10:19.767Z,3.38
2022-11-29T17:13:21.971Z,5.25
2022-11-29T17:16:25.868Z,3.80
2022-11-29T17:19:29.852Z,4.50
2022-11-29T17:22:37.817Z,5.18
2022-11-29T17:29:05.696Z,3.90
2022-11-29T17:32:07.816Z,5.00
2022-11-29T17:35:35.154Z,4.88
2022-11-29T17:38:37.356Z,4.72
2022-11-29T17:41:39.356Z,5.25
2022-11-29T17:44:42.661Z,4.95
2022-11-29T17:47:44.721Z,4.68
2022-11-29T17:50:52.288Z,5.43
2022-11-29T17:54:00.140Z,5.65
2022-11-29T17:57:05.035Z,6.60
2022-11-29T18:00:09.048Z,6.68
2022-11-29T18:03:15.797Z,5.40
2022-11-29T18:06:43.592Z,4.78
2022-11-29T18:09:59.070Z,4.53
2022-11-29T18:13:01.171Z,5.28
2022-11-29T18:16:18.978Z,4.88
2022-11-29T18:19:25.752Z,5.63
2022-11-29T18:22:30.632Z,6.75
2022-11-29T18:25:40.312Z,6.25
2022-11-29T18:28:46.890Z,7.72
2022-11-29T18:31:55.961Z,8.63
2022-11-29T18:35:00.172Z,7.95
2022-11-29T18:38:18.899Z,7.22
2022-11-29T18:41:28.447Z,8.52
2022-11-29T18:44:32.611Z,8.82
2022-11-29T18:47:37.763Z,8.30
2022-11-29T18:50:39.996Z,8.38
2022-11-29T18:53:43.228Z,7.22
2022-11-29T18:56:47.154Z,6.75
2022-11-29T18:59:50.559Z,8.93
2022-11-29T19:02:54.032Z,8.20
2022-11-29T19:05:58.943Z,7.72
2022-11-29T19:09:01.485Z,8.43
2022-11-29T19:12:05.402Z,8.00
2022-11-29T19:15:09.211Z,8.70
2022-11-29T19:18:11.234Z,8.85
2022-11-29T19:21:18.102Z,8.27
2022-11-29T19:24:20.943Z,8.15
2022-11-29T19:27:50.378Z,8.80
2022-11-29T19:30:56.216Z,7.85
2022-11-29T19:34:01.181Z,7.70
2022-11-29T19:37:04.212Z,6.82
2022-11-29T19:40:11.185Z,8.70
2022-11-29T19:43:13.296Z,7.55
2022-11-29T19:46:20.908Z,6.50
2022-11-29T19:49:23.091Z,7.57
2022-11-29T19:52:25.701Z,7.82
2022-11-29T19:55:27.747Z,8.20
2022-11-29T19:58:30.223Z,7.78
2022-11-29T20:01:40.291Z,7.10
2022-11-29T20:04:54.593Z,7.50
2022-11-29T20:07:56.707Z,7.60
2022-11-29T20:11:18.499Z,10.18
2022-11-29T20:14:20.846Z,7.47
2022-11-29T20:17:22.930Z,7.68
2022-11-29T20:20:29.708Z,7.05
2022-11-29T20:23:33.583Z,7.93
2022-11-29T20:26:42.185Z,8.32
2022-11-29T20:29:44.675Z,9.65
2022-11-29T20:32:47.096Z,9.18
2022-11-29T20:36:13.058Z,9.15
2022-11-29T20:39:52.300Z,8.18
2022-11-29T20:43:20.647Z,8.60
2022-11-29T20:46:28.209Z,7.80
2022-11-29T20:49:32.586Z,8.15
2022-11-29T20:52:51.813Z,7.47
2022-11-29T20:55:55.443Z,9.13
2022-11-29T20:58:57.513Z,8.07
2022-11-29T21:02:01.508Z,7.38
2022-11-29T21:05:04.333Z,8.95
2022-11-29T21:08:07.775Z,7.20
2022-11-29T21:11:13.686Z,7.95
2022-11-29T21:14:18.557Z,6.82
2022-11-29T21:17:20.844Z,8.38
2022-11-29T21:20:26.105Z,8.15
2022-11-29T21:23:57.389Z,8.93
2022-11-29T21:26:59.832Z,9.25
2022-11-29T21:30:05.581Z,8.00
2022-11-29T21:33:08.332Z,7.32
2022-11-29T21:36:13.318Z,8.82
2022-11-29T21:39:16.728Z,9.55
2022-11-29T21:42:18.841Z,8.75
2022-11-29T21:45:20.985Z,8.90
2022-11-29T21:48:35.217Z,8.85
2022-11-29T21:51:38.292Z,10.63
2022-11-29T21:54:40.517Z,10.30
2022-11-29T21:57:42.587Z,10.95
2022-11-29T22:00:45.724Z,10.88
2022-11-29T22:03:48.305Z,11.57
2022-11-29T22:06:50.528Z,11.40
2022-11-29T22:09:52.976Z,11.13
2022-11-29T22:12:55.494Z,11.35
2022-11-29T22:16:08.811Z,10.63
2022-11-29T22:19:12.607Z,11.43
2022-11-29T22:22:14.757Z,10.05
2022-11-29T22:25:16.698Z,10.23
2022-11-29T22:28:18.854Z,9.00
2022-11-29T22:31:20.906Z,10.32
2022-11-29T22:34:25.336Z,9.15
2022-11-29T22:37:28.289Z,12.20
2022-11-29T22:40:30.440Z,9.95
2022-11-29T22:43:36.275Z,11.23
2022-11-29T22:46:41.120Z,10.75
2022-11-29T22:49:44.712Z,11.73
2022-11-29T22:52:46.838Z,11.43
2022-11-29T22:55:49.158Z,11.13
2022-11-29T22:58:51.461Z,10.70
2022-11-29T23:01:53.567Z,11.02
2022-11-29T23:04:55.629Z,11.85
2022-11-29T23:07:58.550Z,11.77
2022-11-29T23:11:04.433Z,11.02
2022-11-29T23:14:06.488Z,10.55
2022-11-29T23:17:08.571Z,10.43
2022-11-29T23:20:11.070Z,11.80
2022-11-29T23:23:13.249Z,10.80
2022-11-29T23:26:30.514Z,9.88
2022-11-29T23:29:32.629Z,10.90
2022-11-29T23:32:34.899Z,10.65
2022-11-29T23:35:37.129Z,11.45
2022-11-29T23:38:39.253Z,10.73
2022-11-29T23:41:41.371Z,11.70
2022-11-29T23:44:45.215Z,10.23
2022-11-29T23:47:48.849Z,9.75
2022-11-29T23:50:51.337Z,11.15
2022-11-29T23:53:54.279Z,10.40
2022-11-29T23:56:56.389Z,11.00
2022-11-29T23:59:59.058Z,10.80
